createdAt,value
2019-06-07T00:02:18.822Z,7.33
2019-06-07T00:04:48.331Z,7.72
2019-06-07T00:07:21.435Z,7.67
2019-06-07T00:09:48.653Z,7.08
2019-06-07T00:12:21.434Z,7.40
2019-06-07T00:14:48.971Z,6.97
2019-06-07T00:17:20.236Z,7.65
2019-06-07T00:19:49.360Z,7.72
2019-06-07T00:22:31.628Z,6.75
2019-06-07T00:24:49.967Z,7.40
2019-06-07T00:27:22.278Z,8.03
2019-06-07T00:29:50.291Z,8.28
2019-06-07T00:32:21.980Z,8.05
2019-06-07T00:34:50.784Z,7.75
2019-06-07T00:37:31.973Z,8.43
2019-06-07T00:40:13.934Z,7.40
2019-06-07T00:42:32.451Z,7.45
2019-06-07T00:45:01.736Z,8.90
2019-06-07T00:47:31.103Z,8.05
2019-06-07T00:50:01.056Z,8.08
2019-06-07T00:55:01.379Z,9.50
2019-06-07T00:57:30.741Z,8.78
2019-06-07T01:00:00.038Z,9.35
2019-06-07T01:02:31.728Z,8.93
2019-06-07T01:05:00.362Z,7.80
2019-06-07T01:07:29.675Z,9.93
2019-06-07T01:09:58.962Z,8.98
2019-06-07T01:12:28.286Z,7.62
2019-06-07T01:14:57.653Z,8.38
2019-06-07T01:17:40.965Z,9.33
2019-06-07T01:20:00.141Z,8.80
2019-06-07T01:22:29.677Z,8.58
2019-06-07T01:24:59.028Z,9.33
2019-06-07T01:27:28.716Z,9.10
2019-06-07T01:29:58.324Z,8.73
2019-06-07T01:32:31.501Z,9.33
2019-06-07T01:34:58.618Z,8.83
2019-06-07T01:37:30.107Z,9.25
2019-06-07T01:39:58.967Z,8.08
2019-06-07T01:42:29.424Z,8.63
2019-06-07T01:44:59.319Z,9.63
2019-06-07T01:47:31.691Z,10.43
2019-06-07T01:50:00.117Z,11.25
2019-06-07T01:52:29.786Z,11.43
2019-06-07T01:54:59.379Z,11.20
2019-06-07T01:57:44.612Z,11.93
2019-06-07T01:59:59.807Z,11.05
2019-06-07T02:02:31.624Z,10.05
2019-06-07T02:05:00.410Z,10.78
2019-06-07T02:07:32.936Z,10.72
2019-06-07T02:10:00.742Z,10.93
2019-06-07T02:12:40.318Z,11.03
2019-06-07T02:15:01.079Z,10.58
2019-06-07T02:17:32.899Z,11.60
2019-06-07T02:20:01.563Z,11.83
2019-06-07T02:22:32.535Z,11.65
2019-06-07T02:25:37.206Z,11.48
2019-06-07T02:27:33.387Z,11.50
2019-06-07T02:30:35.685Z,12.45
2019-06-07T02:32:36.632Z,11.08
2019-06-07T02:35:08.158Z,12.20
2019-06-07T02:37:37.752Z,12.20
2019-06-07T02:40:08.399Z,11.30
2019-06-07T02:42:41.888Z,12.47
2019-06-07T02:45:10.907Z,11.50
2019-06-07T02:47:43.546Z,11.80
2019-06-07T02:50:14.818Z,11.80
2019-06-07T02:52:44.125Z,12.30
2019-06-07T02:55:13.624Z,12.40
2019-06-07T02:57:43.350Z,13.53
2019-06-07T03:00:41.328Z,11.83
2019-06-07T03:05:15.227Z,11.03
2019-06-07T03:07:47.014Z,13.05
2019-06-07T03:10:16.398Z,13.43
2019-06-07T03:12:48.059Z,12.85
2019-06-07T03:15:32.598Z,14.28
2019-06-07T03:17:51.808Z,12.95
2019-06-07T03:20:27.402Z,13.95
2019-06-07T03:22:59.932Z,13.88
2019-06-07T03:25:35.703Z,13.83
2019-06-07T03:28:03.545Z,13.60
2019-06-07T03:30:48.274Z,14.60
2019-06-07T03:33:04.132Z,14.38
2019-06-07T03:35:35.303Z,13.60
2019-06-07T03:38:04.431Z,13.93
2019-06-07T03:40:36.925Z,14.05
2019-06-07T03:43:04.730Z,13.83
2019-06-07T03:45:37.920Z,14.45
2019-06-07T03:48:05.041Z,15.95
2019-06-07T03:50:38.747Z,13.93
2019-06-07T03:53:06.353Z,13.93
2019-06-07T03:55:40.518Z,13.68
2019-06-07T04:00:42.738Z,13.90
2019-06-07T04:03:09.864Z,15.78
2019-06-07T04:05:42.948Z,13.88
2019-06-07T04:08:10.167Z,14.38
2019-06-07T04:10:55.961Z,14.70
2019-06-07T04:13:10.655Z,14.73
2019-06-07T04:15:41.465Z,14.87
2019-06-07T04:18:11.104Z,15.03
2019-06-07T04:20:41.422Z,14.87
2019-06-07T04:23:27.336Z,14.63
2019-06-07T04:25:42.814Z,15.50
2019-06-07T04:28:12.308Z,15.40
2019-06-07T04:30:45.695Z,15.30
2019-06-07T04:35:45.260Z,14.85
2019-06-07T04:38:14.862Z,15.13
2019-06-07T04:40:44.824Z,14.75
2019-06-07T04:43:14.115Z,14.87
2019-06-07T04:45:50.910Z,16.30
2019-06-07T04:48:14.434Z,16.82
2019-06-07T04:50:44.324Z,16.48
2019-06-07T04:53:13.757Z,16.65
2019-06-07T04:55:44.015Z,16.48
2019-06-07T04:58:13.331Z,17.60
2019-06-07T05:00:58.396Z,16.80
2019-06-07T05:03:13.675Z,17.35
2019-06-07T05:05:43.802Z,17.23
2019-06-07T05:08:27.711Z,17.48
2019-06-07T05:10:44.407Z,18.10
2019-06-07T05:13:13.710Z,18.12
2019-06-07T05:15:43.088Z,19.37
2019-06-07T05:18:12.391Z,19.60
2019-06-07T05:20:44.648Z,21.27
2019-06-07T05:23:59.429Z,17.73
2019-06-07T05:25:44.743Z,18.77
2019-06-07T05:28:14.544Z,20.15
2019-06-07T05:31:03.423Z,18.90
2019-06-07T05:33:14.876Z,19.27
2019-06-07T05:35:44.167Z,18.30
2019-06-07T05:38:13.467Z,17.05
2019-06-07T05:40:48.531Z,17.77
2019-06-07T05:43:26.023Z,17.67
2019-06-07T05:45:55.660Z,17.17
2019-06-07T05:48:24.973Z,15.83
2019-06-07T05:50:57.883Z,16.23
2019-06-07T05:53:25.284Z,14.93
2019-06-07T05:55:54.579Z,15.10
2019-06-07T05:58:23.924Z,13.95
2019-06-07T06:00:53.228Z,14.50
2019-06-07T06:03:22.547Z,13.98
2019-06-07T06:05:55.175Z,14.25
2019-06-07T06:08:22.861Z,13.60
2019-06-07T06:10:53.134Z,14.53
2019-06-07T06:13:22.591Z,15.15
2019-06-07T06:16:01.284Z,14.47
2019-06-07T06:18:22.919Z,15.72
2019-06-07T06:21:15.454Z,13.48
2019-06-07T06:23:23.243Z,13.38
2019-06-07T06:25:57.126Z,14.10
2019-06-07T06:28:23.555Z,15.28
2019-06-07T06:30:52.891Z,15.70
2019-06-07T06:33:33.579Z,13.60
2019-06-07T06:35:53.216Z,17.35
2019-06-07T06:38:22.535Z,14.47
2019-06-07T06:41:11.797Z,13.35
2019-06-07T06:43:22.980Z,12.60
2019-06-07T06:45:52.284Z,13.15
2019-06-07T06:48:21.595Z,14.30
2019-06-07T06:50:52.676Z,12.78
2019-06-07T06:53:21.931Z,13.55
2019-06-07T06:55:51.522Z,13.45
2019-06-07T06:58:20.915Z,12.88
2019-06-07T07:01:04.861Z,10.80
2019-06-07T07:03:57.670Z,12.43
2019-06-07T07:05:55.404Z,10.35
2019-06-07T07:08:25.077Z,10.88
2019-06-07T07:10:55.086Z,9.93
2019-06-07T07:13:24.673Z,10.40
2019-06-07T07:15:57.880Z,9.75
2019-06-07T07:18:24.963Z,8.78
2019-06-07T07:20:57.264Z,9.13
2019-06-07T07:23:25.733Z,8.85
2019-06-07T07:25:59.308Z,9.15
2019-06-07T07:28:26.319Z,7.53
2019-06-07T07:30:57.079Z,7.80
2019-06-07T07:34:19.871Z,7.08
2019-06-07T07:36:28.719Z,8.53
2019-06-07T07:38:28.980Z,8.53
2019-06-07T07:41:08.953Z,8.00
2019-06-07T07:43:29.463Z,6.47
2019-06-07T07:46:02.843Z,6.35
2019-06-07T07:48:30.103Z,6.80
2019-06-07T07:51:00.809Z,6.08
2019-06-07T07:53:47.552Z,6.40
2019-06-07T07:56:01.595Z,6.92
2019-06-07T07:58:31.391Z,6.80
2019-06-07T08:01:09.983Z,7.08
2019-06-07T08:03:32.778Z,8.35
2019-06-07T08:06:02.103Z,8.25
2019-06-07T08:08:31.405Z,7.85
2019-06-07T08:11:02.134Z,9.48
2019-06-07T08:13:31.987Z,9.23
2019-06-07T08:16:10.642Z,9.28
2019-06-07T08:18:32.326Z,9.68
2019-06-07T08:21:21.519Z,9.78
2019-06-07T08:23:32.704Z,9.93
2019-06-07T08:26:03.150Z,10.28
2019-06-07T08:28:32.450Z,11.38
2019-06-07T08:31:06.774Z,9.80
2019-06-07T08:33:32.767Z,9.70
2019-06-07T08:36:12.009Z,10.15
2019-06-07T08:38:46.955Z,10.53
2019-06-07T08:41:11.867Z,9.78
2019-06-07T08:43:38.010Z,9.13
2019-06-07T08:46:08.153Z,9.00
2019-06-07T08:48:37.597Z,8.95
2019-06-07T08:51:08.598Z,9.65
2019-06-07T08:53:38.000Z,8.63
2019-06-07T08:56:10.879Z,9.30
2019-06-07T08:58:40.458Z,8.80
2019-06-07T09:01:09.555Z,9.33
2019-06-07T09:03:39.353Z,8.90
2019-06-07T09:06:53.947Z,8.53
2019-06-07T09:08:39.712Z,8.55
2019-06-07T09:11:11.062Z,7.75
2019-06-07T09:13:40.028Z,8.05
2019-06-07T09:16:09.347Z,7.28
2019-06-07T09:18:43.724Z,8.20
2019-06-07T09:21:10.027Z,6.72
2019-06-07T09:23:39.532Z,7.67
2019-06-07T09:26:17.773Z,8.03
2019-06-07T09:28:40.043Z,6.60
2019-06-07T09:31:11.931Z,7.12
2019-06-07T09:33:40.347Z,7.40
2019-06-07T09:36:12.924Z,8.20
2019-06-07T09:38:41.402Z,7.12
2019-06-07T09:41:10.738Z,7.22
2019-06-07T09:44:01.315Z,6.33
2019-06-07T09:46:14.701Z,6.22
2019-06-07T09:51:19.784Z,6.47
2019-06-07T09:53:44.207Z,6.10
2019-06-07T09:56:13.531Z,5.65
2019-06-07T09:58:52.688Z,6.40
2019-06-07T10:01:14.196Z,6.17
2019-06-07T10:03:43.593Z,6.08
2019-06-07T10:06:13.821Z,5.65
2019-06-07T10:10:08.252Z,6.20
2019-06-07T10:11:17.390Z,7.05
2019-06-07T10:13:46.693Z,7.30
2019-06-07T10:16:16.041Z,6.78
2019-06-07T10:18:45.416Z,7.60
2019-06-07T10:21:15.472Z,6.28
2019-06-07T10:23:45.151Z,6.20
2019-06-07T10:26:14.473Z,5.67
2019-06-07T10:28:43.846Z,5.22
2019-06-07T10:31:13.431Z,5.12
2019-06-07T10:33:42.791Z,5.62
2019-06-07T10:36:12.128Z,5.28
2019-06-07T10:38:41.425Z,4.42
2019-06-07T10:41:11.883Z,4.85
2019-06-07T10:43:41.290Z,5.00
2019-06-07T10:46:12.049Z,4.40
2019-06-07T10:48:41.548Z,4.47
2019-06-07T10:51:12.369Z,5.08
2019-06-07T10:53:41.872Z,4.72
2019-06-07T10:56:11.224Z,3.90
2019-06-07T10:58:40.686Z,3.83
2019-06-07T11:01:12.392Z,3.92
2019-06-07T11:03:41.031Z,4.22
2019-06-07T11:06:10.325Z,4.30
2019-06-07T11:08:39.620Z,4.12
2019-06-07T11:11:09.993Z,5.12
2019-06-07T11:13:39.511Z,4.80
2019-06-07T11:16:08.890Z,4.58
2019-06-07T11:18:38.195Z,4.30
2019-06-07T11:21:07.979Z,4.53
2019-06-07T11:23:37.376Z,4.42
2019-06-07T11:26:06.691Z,4.05
2019-06-07T11:28:36.004Z,4.10
2019-06-07T11:31:06.319Z,3.85
2019-06-07T11:33:35.785Z,4.30
2019-06-07T11:36:06.574Z,3.70
2019-06-07T11:38:36.095Z,3.70
2019-06-07T11:41:05.403Z,3.30
2019-06-07T11:43:34.746Z,3.33
2019-06-07T11:46:04.270Z,3.58
2019-06-07T11:48:33.604Z,3.95
2019-06-07T11:51:02.927Z,4.50
2019-06-07T11:53:32.370Z,4.62
2019-06-07T11:56:02.825Z,5.58
2019-06-07T11:58:32.115Z,4.67
2019-06-07T12:01:01.456Z,4.42
2019-06-07T12:03:30.938Z,4.33
2019-06-07T12:06:00.236Z,3.98
2019-06-07T12:08:29.695Z,5.37
2019-06-07T12:11:12.216Z,5.03
2019-06-07T12:13:43.820Z,3.72
2019-06-07T12:16:13.523Z,4.45
2019-06-07T12:18:42.894Z,4.00
2019-06-07T12:21:13.535Z,4.08
2019-06-07T12:23:42.987Z,3.17
2019-06-07T12:26:12.347Z,3.50
2019-06-07T12:28:41.670Z,3.55
2019-06-07T12:31:10.998Z,3.65
2019-06-07T12:33:40.275Z,4.20
2019-06-07T12:36:09.648Z,4.62
2019-06-07T12:38:38.970Z,3.72
2019-06-07T12:41:08.269Z,3.45
2019-06-07T12:43:37.579Z,3.58
2019-06-07T12:46:06.871Z,3.50
2019-06-07T12:48:36.215Z,3.35
2019-06-07T12:51:05.875Z,3.60
2019-06-07T12:53:35.176Z,4.20
2019-06-07T12:56:04.599Z,4.08
2019-06-07T12:58:37.360Z,2.95
2019-06-07T13:01:05.461Z,3.40
2019-06-07T13:03:34.809Z,3.02
2019-06-07T13:06:04.156Z,3.10
2019-06-07T13:08:33.473Z,3.40
2019-06-07T13:11:14.870Z,3.58
2019-06-07T13:13:33.767Z,4.53
2019-06-07T13:16:03.160Z,3.52
2019-06-07T13:18:32.556Z,2.98
2019-06-07T13:21:01.925Z,3.17
2019-06-07T13:23:31.488Z,3.47
2019-06-07T13:26:00.788Z,3.65
2019-06-07T13:28:30.147Z,2.92
2019-06-07T13:30:59.477Z,3.65
2019-06-07T13:33:34.095Z,3.40
2019-06-07T13:35:59.895Z,3.20
2019-06-07T13:38:29.395Z,3.30
2019-06-07T13:40:58.783Z,3.35
2019-06-07T13:43:28.356Z,3.00
2019-06-07T13:45:57.769Z,3.05
2019-06-07T13:48:28.282Z,3.22
2019-06-07T13:50:57.579Z,3.08
2019-06-07T13:53:26.893Z,2.70
2019-06-07T13:55:56.185Z,3.02
2019-06-07T13:58:26.520Z,2.92
2019-06-07T14:00:55.851Z,3.37
2019-06-07T14:03:29.291Z,3.00
2019-06-07T14:05:56.247Z,2.60
2019-06-07T14:08:25.544Z,2.70
2019-06-07T14:10:54.854Z,2.33
2019-06-07T14:13:24.184Z,3.05
2019-06-07T14:15:53.531Z,2.40
2019-06-07T14:18:24.430Z,2.77
2019-06-07T14:20:54.944Z,2.60
2019-06-07T14:23:44.230Z,2.75
2019-06-07T14:25:55.253Z,2.90
2019-06-07T14:28:27.183Z,2.35
2019-06-07T14:30:55.576Z,2.17
2019-06-07T14:33:26.936Z,2.65
2019-06-07T14:35:56.154Z,2.52
2019-06-07T14:38:27.318Z,2.65
2019-06-07T14:40:56.899Z,2.12
2019-06-07T14:43:27.593Z,2.10
2019-06-07T14:45:57.072Z,2.90
2019-06-07T14:48:27.893Z,2.20
2019-06-07T14:50:57.426Z,2.40
2019-06-07T14:53:26.739Z,2.17
2019-06-07T14:56:09.694Z,2.27
2019-06-07T14:58:43.260Z,2.02
2019-06-07T15:01:11.046Z,2.17
2019-06-07T15:03:40.341Z,1.90
2019-06-07T15:06:09.905Z,2.10
2019-06-07T15:08:39.259Z,2.12
2019-06-07T15:11:08.568Z,1.90
2019-06-07T15:13:37.875Z,2.05
2019-06-07T15:16:08.026Z,2.15
2019-06-07T15:18:37.932Z,1.80
2019-06-07T15:21:08.505Z,2.47
2019-06-07T15:23:39.251Z,2.08
2019-06-07T15:26:08.775Z,2.42
2019-06-07T15:28:38.466Z,2.08
2019-06-07T15:31:07.937Z,1.90
2019-06-07T15:33:38.412Z,1.87
2019-06-07T15:36:07.829Z,2.25
2019-06-07T15:38:37.301Z,2.10
2019-06-07T15:41:06.768Z,2.08
2019-06-07T15:43:37.288Z,1.87
2019-06-07T15:46:07.851Z,2.17
2019-06-07T15:48:38.280Z,2.40
2019-06-07T15:51:08.976Z,2.12
2019-06-07T15:53:44.053Z,2.52
2019-06-07T15:56:09.281Z,1.67
2019-06-07T15:58:39.431Z,2.65
2019-06-07T16:01:09.862Z,1.90
2019-06-07T16:03:39.849Z,2.70
2019-06-07T16:06:09.336Z,2.45
2019-06-07T16:08:38.710Z,2.42
2019-06-07T16:11:08.119Z,2.37
2019-06-07T16:13:38.697Z,2.27
2019-06-07T16:16:08.334Z,1.90
2019-06-07T16:18:39.546Z,3.92
2019-06-07T16:21:08.814Z,2.77
2019-06-07T16:23:38.104Z,2.75
2019-06-07T16:26:07.403Z,2.50
2019-06-07T16:28:36.711Z,2.02
2019-06-07T16:31:06.015Z,2.80
2019-06-07T16:33:35.316Z,2.60
2019-06-07T16:36:04.615Z,2.90
2019-06-07T16:38:33.913Z,3.50
2019-06-07T16:41:03.220Z,3.95
2019-06-07T16:43:32.519Z,3.52
2019-06-07T16:46:01.821Z,3.40
2019-06-07T16:48:31.112Z,2.45
2019-06-07T16:51:00.443Z,2.70
2019-06-07T16:53:29.743Z,2.70
2019-06-07T16:55:59.047Z,2.60
2019-06-07T16:58:28.355Z,2.22
2019-06-07T17:00:58.126Z,2.42
2019-06-07T17:03:28.888Z,3.00
2019-06-07T17:05:58.194Z,2.52
2019-06-07T17:08:27.479Z,2.40
2019-06-07T17:10:56.780Z,2.15
2019-06-07T17:13:33.386Z,1.95
2019-06-07T17:15:57.088Z,2.10
2019-06-07T17:18:26.383Z,1.67
2019-06-07T17:20:55.675Z,2.70
2019-06-07T17:23:25.064Z,2.83
2019-06-07T17:25:54.357Z,2.45
2019-06-07T17:28:23.669Z,2.20
2019-06-07T17:30:52.952Z,2.67
2019-06-07T17:33:22.311Z,2.40
2019-06-07T17:35:51.613Z,2.52
2019-06-07T17:38:20.920Z,2.50
2019-06-07T17:40:51.207Z,2.58
2019-06-07T17:43:20.591Z,2.67
2019-06-07T17:45:49.904Z,2.35
2019-06-07T17:48:19.240Z,2.42
2019-06-07T17:50:49.888Z,2.50
2019-06-07T17:53:19.319Z,2.00
2019-06-07T17:55:48.608Z,1.92
2019-06-07T17:58:17.908Z,1.70
2019-06-07T18:00:51.046Z,1.90
2019-06-07T18:03:21.237Z,1.67
2019-06-07T18:05:51.368Z,1.77
2019-06-07T18:08:22.323Z,1.50
2019-06-07T18:10:52.096Z,1.80
2019-06-07T18:13:21.395Z,1.65
2019-06-07T18:15:55.553Z,1.30
2019-06-07T18:18:21.924Z,1.40
2019-06-07T18:20:51.757Z,1.52
2019-06-07T18:23:21.591Z,1.40
2019-06-07T18:25:50.899Z,1.60
2019-06-07T18:28:20.205Z,1.17
2019-06-07T18:30:50.769Z,1.25
2019-06-07T18:33:20.165Z,1.10
2019-06-07T18:35:49.443Z,0.60
2019-06-07T18:38:18.739Z,0.90
2019-06-07T18:40:49.118Z,0.98
2019-06-07T18:43:18.527Z,0.70
2019-06-07T18:45:49.008Z,0.75
2019-06-07T18:48:18.698Z,1.05
2019-06-07T18:50:48.583Z,0.90
2019-06-07T18:53:18.088Z,1.02
2019-06-07T18:55:47.833Z,1.07
2019-06-07T18:58:17.363Z,0.88
2019-06-07T19:00:47.314Z,0.80
2019-06-07T19:03:16.831Z,0.85
2019-06-07T19:05:46.123Z,0.95
2019-06-07T19:08:15.416Z,0.75
2019-06-07T19:10:44.708Z,0.90
2019-06-07T19:13:14.008Z,0.90
2019-06-07T19:15:43.556Z,0.80
2019-06-07T19:18:12.983Z,0.95
2019-06-07T19:20:42.303Z,1.10
2019-06-07T19:23:11.585Z,0.75
2019-06-07T19:25:41.843Z,0.72
2019-06-07T19:28:12.135Z,0.80
2019-06-07T19:30:41.423Z,0.60
2019-06-07T19:33:10.716Z,0.78
2019-06-07T19:35:40.027Z,0.80
2019-06-07T19:38:09.319Z,0.70
2019-06-07T19:40:38.622Z,0.55
2019-06-07T19:43:07.924Z,1.00
2019-06-07T19:45:37.224Z,0.93
2019-06-07T19:48:06.531Z,0.93
2019-06-07T19:50:35.830Z,0.70
2019-06-07T19:53:05.203Z,0.90
2019-06-07T19:55:34.508Z,1.20
2019-06-07T19:58:04.016Z,0.60
2019-06-07T20:00:33.538Z,0.98
2019-06-07T20:03:04.317Z,0.60
2019-06-07T20:05:34.229Z,0.57
2019-06-07T20:08:04.952Z,0.80
2019-06-07T20:10:34.531Z,0.75
2019-06-07T20:13:05.190Z,0.50
2019-06-07T20:15:34.703Z,0.65
2019-06-07T20:18:05.391Z,0.95
2019-06-07T20:20:36.031Z,0.70
2019-06-07T20:23:05.405Z,0.98
2019-06-07T20:25:34.691Z,1.20
2019-06-07T20:28:05.419Z,0.90
2019-06-07T20:30:34.932Z,0.65
2019-06-07T20:33:04.233Z,0.80
2019-06-07T20:35:33.520Z,0.90
2019-06-07T20:38:03.978Z,0.80
2019-06-07T20:40:33.826Z,0.85
2019-06-07T20:43:03.560Z,1.00
2019-06-07T20:45:34.346Z,0.90
2019-06-07T20:48:04.198Z,1.47
2019-06-07T20:50:33.662Z,0.90
2019-06-07T20:53:03.209Z,0.75
2019-06-07T20:55:32.603Z,0.93
2019-06-07T20:58:03.726Z,1.05
2019-06-07T21:00:33.081Z,1.10
2019-06-07T21:03:03.231Z,0.75
2019-06-07T21:05:32.658Z,1.20
2019-06-07T21:08:02.394Z,1.05
2019-06-07T21:10:33.002Z,0.70
2019-06-07T21:13:02.316Z,1.10
2019-06-07T21:15:31.613Z,0.70
2019-06-07T21:18:03.331Z,0.80
2019-06-07T21:20:34.022Z,0.90
2019-06-07T21:23:02.924Z,1.00
2019-06-07T21:25:32.221Z,1.00
2019-06-07T21:28:01.537Z,0.80
2019-06-07T21:30:30.832Z,1.55
2019-06-07T21:33:01.351Z,1.20
2019-06-07T21:35:31.032Z,0.98
2019-06-07T21:38:01.828Z,0.90
2019-06-07T21:40:31.343Z,0.88
2019-06-07T21:43:02.005Z,1.10
2019-06-07T21:45:31.500Z,0.85
2019-06-07T21:48:03.158Z,0.90
2019-06-07T21:50:31.792Z,1.05
2019-06-07T21:53:02.390Z,1.17
2019-06-07T21:55:31.859Z,1.17
2019-06-07T21:58:03.073Z,1.20
2019-06-07T22:00:56.678Z,0.90
2019-06-07T22:03:26.064Z,1.00
2019-06-07T22:05:55.367Z,1.30
2019-06-07T22:08:24.695Z,1.20
2019-06-07T22:10:54.003Z,0.75
2019-06-07T22:13:23.312Z,1.20
2019-06-07T22:15:52.603Z,0.90
2019-06-07T22:18:21.917Z,1.30
2019-06-07T22:20:51.260Z,1.35
2019-06-07T22:23:20.560Z,0.93
2019-06-07T22:25:49.923Z,1.67
2019-06-07T22:28:19.268Z,0.80
2019-06-07T22:30:48.652Z,1.02
2019-06-07T22:33:18.993Z,0.80
2019-06-07T22:35:49.389Z,0.65
2019-06-07T22:38:18.704Z,1.00
2019-06-07T22:40:47.996Z,1.20
2019-06-07T22:43:18.852Z,0.80
2019-06-07T22:45:48.393Z,0.90
2019-06-07T22:48:17.686Z,0.93
2019-06-07T22:50:46.976Z,1.27
2019-06-07T22:53:17.612Z,1.17
2019-06-07T22:55:48.679Z,0.90
2019-06-07T22:58:19.108Z,1.07
2019-06-07T23:00:48.445Z,0.80
2019-06-07T23:03:19.121Z,0.72
2019-06-07T23:05:48.635Z,0.70
2019-06-07T23:08:19.078Z,1.15
2019-06-07T23:10:49.443Z,0.70
2019-06-07T23:13:19.654Z,1.07
2019-06-07T23:15:49.136Z,0.90
2019-06-07T23:18:19.690Z,1.15
2019-06-07T23:20:49.219Z,0.82
2019-06-07T23:23:18.515Z,0.85
2019-06-07T23:25:47.811Z,1.00
2019-06-07T23:28:18.660Z,0.75
2019-06-07T23:30:48.055Z,1.10
2019-06-07T23:33:18.863Z,0.60
2019-06-07T23:35:48.217Z,1.15
2019-06-07T23:38:17.511Z,0.80
2019-06-07T23:40:46.813Z,2.02
2019-06-07T23:43:17.471Z,0.98
2019-06-07T23:45:47.872Z,0.90
2019-06-07T23:48:17.460Z,1.17
2019-06-07T23:50:46.871Z,1.25
2019-06-07T23:53:16.209Z,0.78
2019-06-07T23:55:45.504Z,0.85
2019-06-07T23:58:15.958Z,1.07
